Time;durP1;ratioP1;P1;durP2;ratioP2;P2;SDS_P1;SDS_P2;PMS_P1;PMS_P2;Temp;Humidity;BMP_temperature;BMP_pressure;BME280_temperature;BME280_humidity;BME280_pressure;Samples;Min_cycle;Max_cycle;Signal;HPM_P1;HPM_P2
2023/09/26 00:00:58;;;;;;;11.60;5.13;;;;;;;;;;5052029;28;20442;-69
2023/09/26 00:03:23;;;;;;;12.20;5.75;;;;;;;;;;5051925;28;20267;-70
2023/09/26 00:05:48;;;;;;;8.43;5.30;;;;;;;;;;5053331;28;20021;-70
2023/09/26 00:08:14;;;;;;;14.00;5.37;;;;;;;;;;5052108;28;20350;-69
2023/09/26 00:10:39;;;;;;;15.15;6.03;;;;;;;;;;5053738;28;20298;-70
2023/09/26 00:13:05;;;;;;;11.90;5.97;;;;;;;;;;5054094;28;20021;-69
2023/09/26 00:15:30;;;;;;;10.77;5.72;;;;;;;;;;5052310;28;20510;-70
2023/09/26 00:17:55;;;;;;;13.70;6.00;;;;;;;;;;5053929;28;20021;-69
2023/09/26 00:20:28;;;;;;;13.63;6.05;;;;;;;;;;5053765;28;20623;-70
2023/09/26 00:22:54;;;;;;;10.77;5.78;;;;;;;;;;5052566;28;20027;-70
2023/09/26 00:25:19;;;;;;;11.40;5.95;;;;;;;;;;5052212;28;20029;-69
2023/09/26 00:27:44;;;;;;;8.38;5.45;;;;;;;;;;5053375;28;20013;-70
2023/09/26 00:30:10;;;;;;;12.02;6.07;;;;;;;;;;5053732;28;20031;-70
2023/09/26 00:32:36;;;;;;;10.02;5.68;;;;;;;;;;5053539;28;20024;-70
2023/09/26 00:35:02;;;;;;;12.75;5.68;;;;;;;;;;5053465;28;20041;-70
2023/09/26 00:37:27;;;;;;;11.38;6.00;;;;;;;;;;5053747;28;20021;-70
2023/09/26 00:39:53;;;;;;;9.00;5.80;;;;;;;;;;5051915;28;20025;-70
2023/09/26 00:42:18;;;;;;;12.00;6.15;;;;;;;;;;5052276;28;20278;-69
2023/09/26 00:44:43;;;;;;;11.82;6.10;;;;;;;;;;5053779;28;20024;-70
2023/09/26 00:47:08;;;;;;;12.00;5.87;;;;;;;;;;5053148;28;20342;-70
2023/09/26 00:49:34;;;;;;;9.65;5.63;;;;;;;;;;5056604;28;20378;-70
2023/09/26 00:52:00;;;;;;;13.98;6.85;;;;;;;;;;5055964;28;20044;-69
2023/09/26 00:54:25;;;;;;;11.18;6.30;;;;;;;;;;5057409;28;20024;-69
2023/09/26 00:56:51;;;;;;;12.48;6.80;;;;;;;;;;5057063;28;20017;-69
2023/09/26 00:59:16;;;;;;;11.93;6.10;;;;;;;;;;5057044;28;20025;-70
2023/09/26 01:01:42;;;;;;;16.15;6.38;;;;;;;;;;5055968;28;20384;-69
2023/09/26 01:04:07;;;;;;;9.38;6.15;;;;;;;;;;5056959;28;20029;-70
2023/09/26 01:06:34;;;;;;;13.32;6.45;;;;;;;;;;5056946;28;20471;-70
2023/09/26 01:08:59;;;;;;;14.15;6.40;;;;;;;;;;5057157;28;20045;-70
2023/09/26 01:11:25;;;;;;;12.85;6.35;;;;;;;;;;5056503;28;20424;-70
2023/09/26 01:13:50;;;;;;;12.30;6.75;;;;;;;;;;5054638;28;20384;-70
2023/09/26 01:16:16;;;;;;;11.70;6.90;;;;;;;;;;5081530;22;20478;-40
2023/09/26 01:18:42;;;;;;;10.68;6.25;;;;;;;;;;5096699;28;20250;-40
2023/09/26 01:21:07;;;;;;;15.20;6.35;;;;;;;;;;5096618;28;20027;-39
2023/09/26 01:23:35;;;;;;;12.83;6.90;;;;;;;;;;5096558;28;20458;-39
2023/09/26 01:26:00;;;;;;;13.20;6.53;;;;;;;;;;5096483;28;20261;-39
2023/09/26 01:28:26;;;;;;;11.40;6.93;;;;;;;;;;5096443;28;20103;-39
2023/09/26 01:30:51;;;;;;;10.40;6.47;;;;;;;;;;5096357;28;20107;-42
2023/09/26 01:33:17;;;;;;;10.43;6.60;;;;;;;;;;5096395;28;20585;-40
2023/09/26 01:35:43;;;;;;;13.60;6.78;;;;;;;;;;5096327;28;20462;-40
2023/09/26 01:38:08;;;;;;;11.48;7.03;;;;;;;;;;5096265;28;20051;-40
2023/09/26 01:40:34;;;;;;;12.65;6.80;;;;;;;;;;5096274;28;20024;-40
2023/09/26 01:43:00;;;;;;;12.98;7.13;;;;;;;;;;5096142;28;20077;-40
2023/09/26 01:45:25;;;;;;;17.98;7.40;;;;;;;;;;5096373;28;20016;-40
2023/09/26 01:47:51;;;;;;;14.15;6.90;;;;;;;;;;5096877;28;20024;-40
2023/09/26 01:50:16;;;;;;;11.55;6.63;;;;;;;;;;5096034;28;20103;-40
2023/09/26 01:52:42;;;;;;;10.75;6.95;;;;;;;;;;5077824;28;20016;-40
2023/09/26 01:55:08;;;;;;;11.93;6.75;;;;;;;;;;5095929;28;20385;-40
2023/09/26 01:57:33;;;;;;;15.02;7.05;;;;;;;;;;5096209;28;20016;-40
2023/09/26 02:00:13;;;;;;;10.95;6.82;;;;;;;;;;5095624;28;20517;-40
2023/09/26 02:02:39;;;;;;;11.82;6.88;;;;;;;;;;5093187;28;20027;-40
2023/09/26 02:05:08;;;;;;;9.98;6.43;;;;;;;;;;5096066;28;20365;-40
2023/09/26 02:07:33;;;;;;;12.00;6.30;;;;;;;;;;5095767;28;20094;-40
2023/09/26 02:09:58;;;;;;;13.07;6.63;;;;;;;;;;5095621;28;20162;-40
2023/09/26 02:12:24;;;;;;;10.27;6.43;;;;;;;;;;5096500;28;20095;-40
2023/09/26 02:14:49;;;;;;;12.50;7.07;;;;;;;;;;5077404;28;20274;-47
2023/09/26 02:17:14;;;;;;;10.77;7.07;;;;;;;;;;5095421;28;20121;-40
2023/09/26 02:19:39;;;;;;;12.73;6.63;;;;;;;;;;5095470;28;20024;-40
2023/09/26 02:22:05;;;;;;;9.13;6.17;;;;;;;;;;5095400;28;20266;-40
2023/09/26 02:24:31;;;;;;;8.07;5.88;;;;;;;;;;5095398;28;20254;-40
2023/09/26 02:26:56;;;;;;;9.52;6.00;;;;;;;;;;5095886;28;20050;-40
2023/09/26 02:29:22;;;;;;;12.77;6.20;;;;;;;;;;5095755;28;20016;-40
2023/09/26 02:31:47;;;;;;;9.30;5.90;;;;;;;;;;5077107;28;20032;-40
2023/09/26 02:34:12;;;;;;;9.13;5.90;;;;;;;;;;5095775;28;20412;-40
2023/09/26 02:36:37;;;;;;;10.67;6.07;;;;;;;;;;5095139;28;20320;-41
2023/09/26 02:39:03;;;;;;;13.23;6.50;;;;;;;;;;5095377;28;20341;-40
2023/09/26 02:41:28;;;;;;;13.27;6.55;;;;;;;;;;5076957;28;20288;-40
2023/09/26 02:43:55;;;;;;;11.03;6.03;;;;;;;;;;5095305;28;20012;-40
2023/09/26 02:46:20;;;;;;;11.32;6.35;;;;;;;;;;5095210;28;20476;-40
2023/09/26 02:48:45;;;;;;;10.77;6.10;;;;;;;;;;5095487;28;20028;-41
2023/09/26 02:51:11;;;;;;;9.73;6.43;;;;;;;;;;5094756;28;20306;-41
2023/09/26 02:53:36;;;;;;;15.07;6.80;;;;;;;;;;5094862;28;20261;-41
2023/09/26 02:56:01;;;;;;;11.87;6.53;;;;;;;;;;5095294;28;20254;-40
2023/09/26 02:58:26;;;;;;;10.32;6.35;;;;;;;;;;5095014;28;20262;-41
2023/09/26 03:00:52;;;;;;;11.25;7.00;;;;;;;;;;5094910;28;20020;-40
2023/09/26 03:03:17;;;;;;;11.30;6.65;;;;;;;;;;5095125;28;20035;-40
2023/09/26 03:05:52;;;;;;;11.20;6.60;;;;;;;;;;5076645;28;20460;-40
2023/09/26 03:08:17;;;;;;;11.32;6.80;;;;;;;;;;5094857;28;20258;-40
2023/09/26 03:10:42;;;;;;;12.60;6.93;;;;;;;;;;5094700;28;20477;-40
2023/09/26 03:13:08;;;;;;;11.50;6.80;;;;;;;;;;5094502;28;20008;-41
2023/09/26 03:15:33;;;;;;;16.15;7.18;;;;;;;;;;5094350;28;20282;-41
2023/09/26 03:17:59;;;;;;;10.50;6.40;;;;;;;;;;5094943;28;20020;-40
2023/09/26 03:20:24;;;;;;;10.20;6.93;;;;;;;;;;5094866;28;20024;-40
2023/09/26 03:22:49;;;;;;;12.93;6.77;;;;;;;;;;5094159;28;20254;-41
2023/09/26 03:25:14;;;;;;;11.45;6.82;;;;;;;;;;5094829;28;20261;-40
2023/09/26 03:27:40;;;;;;;14.80;7.25;;;;;;;;;;5094213;28;20016;-40
2023/09/26 03:30:05;;;;;;;12.25;6.78;;;;;;;;;;5075901;28;20016;-40
2023/09/26 03:32:30;;;;;;;16.88;6.75;;;;;;;;;;5094698;28;20039;-40
2023/09/26 03:34:56;;;;;;;9.70;6.10;;;;;;;;;;5094111;28;20019;-40
2023/09/26 03:37:22;;;;;;;11.60;6.53;;;;;;;;;;5094079;28;20249;-40
2023/09/26 03:39:47;;;;;;;11.77;6.35;;;;;;;;;;5094306;28;20262;-40
2023/09/26 03:42:12;;;;;;;11.40;6.93;;;;;;;;;;5094214;28;20091;-40
2023/09/26 03:44:41;;;;;;;9.63;7.00;;;;;;;;;;5093927;28;20020;-40
2023/09/26 03:47:06;;;;;;;10.85;6.60;;;;;;;;;;5094474;28;20258;-40
2023/09/26 03:49:32;;;;;;;12.05;7.40;;;;;;;;;;5093827;28;20024;-40
2023/09/26 03:51:57;;;;;;;12.10;6.87;;;;;;;;;;5093855;28;20454;-40
2023/09/26 03:54:22;;;;;;;10.63;7.23;;;;;;;;;;5093775;28;20249;-40
2023/09/26 03:56:47;;;;;;;11.93;7.15;;;;;;;;;;5094271;28;20257;-40
2023/09/26 03:59:14;;;;;;;12.37;7.73;;;;;;;;;;5093736;28;20020;-40
2023/09/26 04:01:39;;;;;;;10.48;6.88;;;;;;;;;;5093932;28;20791;-40
2023/09/26 04:04:04;;;;;;;11.37;7.67;;;;;;;;;;5094267;28;20016;-40
2023/09/26 04:06:33;;;;;;;13.70;7.20;;;;;;;;;;5075550;28;20258;-40
2023/09/26 04:08:58;;;;;;;10.90;6.95;;;;;;;;;;5093539;28;20258;-40
2023/09/26 04:11:23;;;;;;;12.07;7.43;;;;;;;;;;5094084;28;20016;-40
2023/09/26 04:13:48;;;;;;;16.73;8.00;;;;;;;;;;5094314;28;20016;-41
2023/09/26 04:16:13;;;;;;;10.68;7.82;;;;;;;;;;5093460;28;20285;-50
2023/09/26 04:18:39;;;;;;;13.20;7.45;;;;;;;;;;5093561;28;20479;-42
2023/09/26 04:21:05;;;;;;;13.60;7.80;;;;;;;;;;5094077;28;20443;-40
2023/09/26 04:23:30;;;;;;;10.57;7.60;;;;;;;;;;5095541;28;20018;-40
2023/09/26 04:25:55;;;;;;;17.55;7.85;;;;;;;;;;5097664;28;20062;-40
2023/09/26 04:28:20;;;;;;;11.97;7.47;;;;;;;;;;5097557;28;20024;-45
2023/09/26 04:30:45;;;;;;;13.77;7.60;;;;;;;;;;5097410;28;20823;-40
2023/09/26 04:33:11;;;;;;;12.17;7.67;;;;;;;;;;5097541;28;20256;-40
2023/09/26 04:35:36;;;;;;;16.57;8.20;;;;;;;;;;5098048;28;20254;-40
2023/09/26 04:38:02;;;;;;;12.35;7.70;;;;;;;;;;5097652;28;20247;-40
2023/09/26 04:40:27;;;;;;;17.13;8.30;;;;;;;;;;5097690;28;20028;-40
2023/09/26 04:42:53;;;;;;;12.13;7.90;;;;;;;;;;5097660;28;20351;-40
2023/09/26 04:45:18;;;;;;;11.50;7.50;;;;;;;;;;5097524;28;20296;-40
2023/09/26 04:47:43;;;;;;;15.43;7.73;;;;;;;;;;5097323;28;20027;-41
2023/09/26 04:50:09;;;;;;;16.02;8.23;;;;;;;;;;5097397;28;20431;-41
2023/09/26 04:52:34;;;;;;;13.02;7.57;;;;;;;;;;5097139;28;20012;-40
2023/09/26 04:54:59;;;;;;;14.00;7.43;;;;;;;;;;5097091;28;20020;-40
2023/09/26 04:57:25;;;;;;;12.23;7.72;;;;;;;;;;5097087;28;20074;-40
2023/09/26 04:59:50;;;;;;;13.95;8.13;;;;;;;;;;5097017;28;20073;-41
2023/09/26 05:02:15;;;;;;;13.75;8.18;;;;;;;;;;5097262;28;20095;-40
2023/09/26 05:04:41;;;;;;;14.97;8.47;;;;;;;;;;5097000;28;20023;-40
2023/09/26 05:07:07;;;;;;;12.10;7.82;;;;;;;;;;5097159;28;20262;-40
2023/09/26 05:09:32;;;;;;;15.65;8.30;;;;;;;;;;5097035;28;20045;-40
2023/09/26 05:11:58;;;;;;;11.57;7.87;;;;;;;;;;5097066;28;20369;-40
2023/09/26 05:14:23;;;;;;;13.73;8.10;;;;;;;;;;5096727;28;20287;-40
2023/09/26 05:16:49;;;;;;;14.37;8.23;;;;;;;;;;5096794;28;20274;-40
2023/09/26 05:19:14;;;;;;;14.05;7.90;;;;;;;;;;5096697;28;20333;-40
2023/09/26 05:21:39;;;;;;;15.00;8.07;;;;;;;;;;5097177;28;20083;-41
2023/09/26 05:24:05;;;;;;;10.87;7.67;;;;;;;;;;5096478;28;20019;-40
2023/09/26 05:26:30;;;;;;;17.73;8.05;;;;;;;;;;5096889;28;20269;-40
2023/09/26 05:28:55;;;;;;;13.30;8.23;;;;;;;;;;5096683;28;20020;-43
2023/09/26 05:31:20;;;;;;;16.90;8.48;;;;;;;;;;5096868;28;20596;-41
2023/09/26 05:33:45;;;;;;;16.13;8.13;;;;;;;;;;5096335;28;20022;-41
2023/09/26 05:36:11;;;;;;;14.35;8.40;;;;;;;;;;5095189;28;20250;-41
2023/09/26 05:38:36;;;;;;;14.03;8.07;;;;;;;;;;5096561;28;20442;-40
2023/09/26 05:41:02;;;;;;;13.60;8.70;;;;;;;;;;5096596;28;20130;-40
2023/09/26 05:43:28;;;;;;;13.18;8.30;;;;;;;;;;5096755;28;20285;-40
2023/09/26 05:45:54;;;;;;;15.73;8.25;;;;;;;;;;5096706;28;20024;-40
2023/09/26 05:48:19;;;;;;;14.55;7.80;;;;;;;;;;5096049;28;20024;-40
2023/09/26 05:50:44;;;;;;;13.05;8.57;;;;;;;;;;5077795;28;20024;-40
2023/09/26 05:53:10;;;;;;;14.93;8.80;;;;;;;;;;5096027;28;20047;-40
2023/09/26 05:55:35;;;;;;;14.50;9.00;;;;;;;;;;5095911;28;20023;-40
2023/09/26 05:58:00;;;;;;;16.20;8.80;;;;;;;;;;5096470;28;20023;-40
2023/09/26 06:00:26;;;;;;;13.48;8.38;;;;;;;;;;5077698;28;20627;-40
2023/09/26 06:02:51;;;;;;;13.75;8.70;;;;;;;;;;5095782;28;20020;-40
2023/09/26 06:05:16;;;;;;;14.77;8.77;;;;;;;;;;5095711;28;20027;-40
2023/09/26 06:07:42;;;;;;;13.48;8.25;;;;;;;;;;5077562;28;20024;-40
2023/09/26 06:10:10;;;;;;;13.02;8.70;;;;;;;;;;5095813;28;20026;-40
2023/09/26 06:12:36;;;;;;;14.32;8.60;;;;;;;;;;5095502;28;20028;-40
2023/09/26 06:15:01;;;;;;;15.43;8.38;;;;;;;;;;5095725;28;20012;-40
2023/09/26 06:17:26;;;;;;;12.02;8.15;;;;;;;;;;5095380;28;20040;-41
2023/09/26 06:19:52;;;;;;;18.65;8.60;;;;;;;;;;5095654;28;20101;-40
2023/09/26 06:22:17;;;;;;;11.85;8.20;;;;;;;;;;5095743;28;20070;-40
2023/09/26 06:24:42;;;;;;;13.83;8.80;;;;;;;;;;5095384;28;20030;-40
2023/09/26 06:27:08;;;;;;;14.95;8.52;;;;;;;;;;5095606;28;20331;-40
2023/09/26 06:29:36;;;;;;;13.75;8.70;;;;;;;;;;5095462;28;20023;-40
2023/09/26 06:32:02;;;;;;;18.45;8.77;;;;;;;;;;5095700;28;20012;-40
2023/09/26 06:34:27;;;;;;;15.30;9.03;;;;;;;;;;5095209;28;20493;-40
2023/09/26 06:36:52;;;;;;;16.20;9.35;;;;;;;;;;5095270;28;20023;-40
2023/09/26 06:39:17;;;;;;;15.33;9.03;;;;;;;;;;5095066;28;20020;-41
2023/09/26 06:41:42;;;;;;;23.65;9.90;;;;;;;;;;5095582;28;20265;-41
2023/09/26 06:44:09;;;;;;;19.57;9.93;;;;;;;;;;5095527;28;20016;-40
2023/09/26 06:46:34;;;;;;;16.40;9.68;;;;;;;;;;5094825;28;20628;-41
2023/09/26 06:48:59;;;;;;;15.98;9.23;;;;;;;;;;5094972;28;20091;-41
2023/09/26 06:51:25;;;;;;;14.80;9.50;;;;;;;;;;5094845;28;20023;-41
2023/09/26 06:53:50;;;;;;;14.40;9.13;;;;;;;;;;5094701;28;20099;-45
2023/09/26 06:56:15;;;;;;;15.70;9.13;;;;;;;;;;5094751;28;20023;-40
2023/09/26 06:58:40;;;;;;;16.08;9.45;;;;;;;;;;5094651;28;20254;-40
2023/09/26 07:01:14;;;;;;;16.43;9.00;;;;;;;;;;5094641;28;20100;-41
2023/09/26 07:03:39;;;;;;;15.60;9.13;;;;;;;;;;5094528;28;20020;-41
2023/09/26 07:06:08;;;;;;;15.13;9.03;;;;;;;;;;5095134;28;20023;-41
2023/09/26 07:08:33;;;;;;;14.57;9.13;;;;;;;;;;5095133;28;20502;-41
2023/09/26 07:11:02;;;;;;;16.43;9.33;;;;;;;;;;5094990;28;20150;-41
2023/09/26 07:13:27;;;;;;;15.82;9.13;;;;;;;;;;5094460;28;20118;-41
2023/09/26 07:15:59;;;;;;;16.00;9.30;;;;;;;;;;5094185;28;20482;-41
2023/09/26 07:18:24;;;;;;;21.38;9.38;;;;;;;;;;5094385;28;20254;-41
2023/09/26 07:20:49;;;;;;;17.37;9.53;;;;;;;;;;5094897;28;20020;-41
2023/09/26 07:23:15;;;;;;;16.63;9.80;;;;;;;;;;5094275;28;20262;-41
2023/09/26 07:25:40;;;;;;;22.25;9.85;;;;;;;;;;5094532;28;20020;-41
2023/09/26 07:28:05;;;;;;;17.95;9.45;;;;;;;;;;5094782;28;20026;-41
2023/09/26 07:30:31;;;;;;;14.60;8.90;;;;;;;;;;5094629;28;20373;-41
2023/09/26 07:32:56;;;;;;;17.38;9.07;;;;;;;;;;5094725;28;20024;-41
2023/09/26 07:35:21;;;;;;;14.30;8.40;;;;;;;;;;5094670;28;20095;-41
2023/09/26 07:37:46;;;;;;;19.80;9.57;;;;;;;;;;5094071;28;20383;-41
2023/09/26 07:40:12;;;;;;;13.50;8.73;;;;;;;;;;5094012;28;20081;-41
2023/09/26 07:42:37;;;;;;;20.67;9.13;;;;;;;;;;5094561;28;20254;-41
2023/09/26 07:45:03;;;;;;;15.82;8.77;;;;;;;;;;5094184;28;20019;-41
2023/09/26 07:47:28;;;;;;;24.40;9.50;;;;;;;;;;5093964;28;20020;-41
2023/09/26 07:49:54;;;;;;;16.63;9.07;;;;;;;;;;5094375;28;20089;-41
2023/09/26 07:52:22;;;;;;;15.25;8.15;;;;;;;;;;5075568;28;20260;-41
2023/09/26 07:54:48;;;;;;;19.58;8.75;;;;;;;;;;5075683;28;20020;-41
2023/09/26 07:57:13;;;;;;;12.43;8.37;;;;;;;;;;5093476;28;20020;-41
2023/09/26 07:59:38;;;;;;;11.87;8.10;;;;;;;;;;5093335;28;20254;-41
2023/09/26 08:02:03;;;;;;;16.63;8.60;;;;;;;;;;5093711;28;20608;-41
2023/09/26 08:04:28;;;;;;;12.57;7.60;;;;;;;;;;5093701;28;20250;-42
2023/09/26 08:06:54;;;;;;;13.90;7.43;;;;;;;;;;5093659;28;20317;-41
2023/09/26 08:09:19;;;;;;;15.40;7.60;;;;;;;;;;5093684;28;20433;-42
2023/09/26 08:11:44;;;;;;;14.93;6.70;;;;;;;;;;5075491;28;20629;-42
2023/09/26 08:14:09;;;;;;;13.43;6.60;;;;;;;;;;5093998;28;20258;-42
2023/09/26 08:16:34;;;;;;;13.30;6.53;;;;;;;;;;5093361;28;20276;-40
2023/09/26 08:19:00;;;;;;;14.27;7.53;;;;;;;;;;5094082;28;20269;-41
2023/09/26 08:21:26;;;;;;;16.60;7.47;;;;;;;;;;5093582;28;20441;-40
2023/09/26 08:23:52;;;;;;;13.02;7.43;;;;;;;;;;5093314;28;20068;-40
2023/09/26 08:26:17;;;;;;;14.82;7.03;;;;;;;;;;5093593;28;20107;-41
2023/09/26 08:28:42;;;;;;;11.17;6.80;;;;;;;;;;5093274;28;20030;-41
2023/09/26 08:31:13;;;;;;;15.03;6.90;;;;;;;;;;5093550;28;20454;-41
2023/09/26 08:33:39;;;;;;;9.75;6.43;;;;;;;;;;5093330;28;20018;-41
2023/09/26 08:36:15;;;;;;;12.93;6.80;;;;;;;;;;5093366;28;20458;-41
2023/09/26 08:38:42;;;;;;;12.48;6.57;;;;;;;;;;5075275;28;20043;-41
2023/09/26 08:41:07;;;;;;;10.98;6.43;;;;;;;;;;5093752;28;20081;-41
2023/09/26 08:43:33;;;;;;;15.05;7.35;;;;;;;;;;5093886;28;20024;-41
2023/09/26 08:45:58;;;;;;;12.65;6.78;;;;;;;;;;5093829;28;20450;-41
2023/09/26 08:48:24;;;;;;;10.70;6.40;;;;;;;;;;5093192;28;20477;-41
2023/09/26 08:50:49;;;;;;;11.48;5.97;;;;;;;;;;5093764;28;20059;-41
2023/09/26 08:53:14;;;;;;;11.48;6.32;;;;;;;;;;5093273;28;20016;-40
2023/09/26 08:55:40;;;;;;;11.87;5.90;;;;;;;;;;5093716;28;20031;-41
2023/09/26 08:58:05;;;;;;;12.57;5.90;;;;;;;;;;5074981;28;20274;-41
2023/09/26 09:00:31;;;;;;;11.35;5.72;;;;;;;;;;5093104;28;20020;-41
2023/09/26 09:02:56;;;;;;;9.27;5.33;;;;;;;;;;5093137;28;20043;-41
2023/09/26 09:05:22;;;;;;;9.40;5.13;;;;;;;;;;5074994;28;20262;-41
2023/09/26 09:07:48;;;;;;;9.10;5.30;;;;;;;;;;5093088;28;20024;-42
2023/09/26 09:10:16;;;;;;;10.03;4.83;;;;;;;;;;5096035;28;20102;-41
2023/09/26 09:12:42;;;;;;;9.88;4.80;;;;;;;;;;5097042;28;20476;-41
2023/09/26 09:15:14;;;;;;;7.93;4.70;;;;;;;;;;5096657;28;20020;-41
2023/09/26 09:17:42;;;;;;;7.00;4.60;;;;;;;;;;5096685;28;20034;-41
2023/09/26 09:20:08;;;;;;;9.05;4.57;;;;;;;;;;5096581;28;20028;-41
2023/09/26 09:22:33;;;;;;;12.43;4.80;;;;;;;;;;5096554;28;20031;-41
2023/09/26 09:24:59;;;;;;;9.80;4.70;;;;;;;;;;5097084;28;20060;-41
2023/09/26 09:27:32;;;;;;;13.75;4.93;;;;;;;;;;5096352;28;20524;-41
2023/09/26 09:30:02;;;;;;;9.32;4.40;;;;;;;;;;5094667;28;20035;-41
2023/09/26 09:32:27;;;;;;;11.93;4.20;;;;;;;;;;5096324;28;20024;-41
2023/09/26 09:34:53;;;;;;;7.85;4.20;;;;;;;;;;5096913;28;20091;-41
2023/09/26 09:37:19;;;;;;;12.82;4.45;;;;;;;;;;5096511;28;20369;-41
2023/09/26 09:39:46;;;;;;;10.18;3.85;;;;;;;;;;5096764;28;20022;-41
2023/09/26 09:42:12;;;;;;;7.65;4.15;;;;;;;;;;5096177;28;20016;-41
2023/09/26 09:44:37;;;;;;;11.73;4.10;;;;;;;;;;5096143;28;20085;-41
2023/09/26 09:47:03;;;;;;;7.47;4.17;;;;;;;;;;5096524;28;20261;-41
2023/09/26 09:49:30;;;;;;;10.45;3.67;;;;;;;;;;5096279;28;20046;-41
2023/09/26 09:51:58;;;;;;;8.65;3.67;;;;;;;;;;5095973;28;20020;-41
2023/09/26 09:54:25;;;;;;;11.60;3.80;;;;;;;;;;5095941;28;20351;-41
2023/09/26 09:56:52;;;;;;;7.85;3.78;;;;;;;;;;5095827;28;20069;-41
2023/09/26 09:59:21;;;;;;;8.00;3.70;;;;;;;;;;5096020;28;20024;-41
2023/09/26 10:01:49;;;;;;;9.88;4.10;;;;;;;;;;5096337;28;20461;-41
2023/09/26 10:04:15;;;;;;;10.55;3.70;;;;;;;;;;5095676;28;20035;-40
2023/09/26 10:06:41;;;;;;;9.45;3.80;;;;;;;;;;5095942;28;20466;-41
2023/09/26 10:09:07;;;;;;;7.28;3.78;;;;;;;;;;5095653;28;20055;-40
2023/09/26 10:11:33;;;;;;;6.73;3.60;;;;;;;;;;5096117;28;20048;-41
2023/09/26 10:13:58;;;;;;;7.47;3.35;;;;;;;;;;5095463;28;20254;-42
2023/09/26 10:16:25;;;;;;;8.93;3.35;;;;;;;;;;5095546;28;20039;-41
2023/09/26 10:18:50;;;;;;;8.13;3.35;;;;;;;;;;5095703;28;20016;-41
2023/09/26 10:21:25;;;;;;;6.85;3.08;;;;;;;;;;5094680;28;20027;-41
2023/09/26 10:24:05;;;;;;;12.95;3.28;;;;;;;;;;5095215;28;20020;-41
2023/09/26 10:26:30;;;;;;;5.47;2.95;;;;;;;;;;5095920;28;20070;-41
2023/09/26 10:29:00;;;;;;;11.80;3.22;;;;;;;;;;5095928;28;20012;-41
2023/09/26 10:31:28;;;;;;;7.68;3.22;;;;;;;;;;5095247;28;20382;-41
2023/09/26 10:33:56;;;;;;;6.90;3.88;;;;;;;;;;5095736;28;20016;-41
2023/09/26 10:36:21;;;;;;;6.10;2.63;;;;;;;;;;5095098;28;20039;-41
2023/09/26 10:39:00;;;;;;;8.57;3.13;;;;;;;;;;5095741;28;20366;-41
2023/09/26 10:41:26;;;;;;;9.57;2.72;;;;;;;;;;5076937;28;20442;-41
2023/09/26 10:43:51;;;;;;;6.22;2.97;;;;;;;;;;5095573;28;20016;-41
2023/09/26 10:46:17;;;;;;;8.50;2.83;;;;;;;;;;5094822;28;20463;-42
2023/09/26 10:48:44;;;;;;;6.50;2.88;;;;;;;;;;5095143;28;20491;-41
2023/09/26 10:51:09;;;;;;;6.20;2.63;;;;;;;;;;5095045;28;20113;-41
2023/09/26 10:53:36;;;;;;;5.85;2.72;;;;;;;;;;5095048;28;20012;-41
2023/09/26 10:56:02;;;;;;;5.60;2.50;;;;;;;;;;5094705;28;20018;-41
2023/09/26 10:58:30;;;;;;;3.65;2.42;;;;;;;;;;5094721;28;20378;-40
2023/09/26 11:00:57;;;;;;;10.02;2.88;;;;;;;;;;5094790;28;20356;-40
2023/09/26 11:03:23;;;;;;;6.10;2.90;;;;;;;;;;5094681;28;20016;-41
2023/09/26 11:05:50;;;;;;;6.95;2.95;;;;;;;;;;5094602;28;20024;-41
2023/09/26 11:08:15;;;;;;;6.95;3.10;;;;;;;;;;5094843;28;20481;-41
2023/09/26 11:10:44;;;;;;;6.97;3.03;;;;;;;;;;5094446;28;20020;-41
2023/09/26 11:13:10;;;;;;;8.02;3.05;;;;;;;;;;5094484;28;20525;-40
2023/09/26 11:15:36;;;;;;;7.75;3.25;;;;;;;;;;5094439;28;20063;-41
2023/09/26 11:18:02;;;;;;;6.78;2.80;;;;;;;;;;5094981;28;20091;-40
2023/09/26 11:20:27;;;;;;;5.17;3.07;;;;;;;;;;5094355;28;20443;-41
2023/09/26 11:22:52;;;;;;;5.28;3.17;;;;;;;;;;5076000;28;20752;-40
2023/09/26 11:25:18;;;;;;;6.57;3.10;;;;;;;;;;5094784;28;20081;-40
2023/09/26 11:27:46;;;;;;;7.35;3.30;;;;;;;;;;5094582;28;20374;-40
2023/09/26 11:30:20;;;;;;;13.18;3.53;;;;;;;;;;5094039;28;20070;-41
2023/09/26 11:32:46;;;;;;;8.23;3.58;;;;;;;;;;5076050;28;20019;-41
2023/09/26 11:35:13;;;;;;;8.20;3.28;;;;;;;;;;5094298;28;20411;-40
2023/09/26 11:37:38;;;;;;;7.30;3.58;;;;;;;;;;5093962;28;20462;-41
2023/09/26 11:40:07;;;;;;;7.53;3.70;;;;;;;;;;5093970;28;20019;-41
2023/09/26 11:42:40;;;;;;;7.53;3.70;;;;;;;;;;5092347;28;20099;-41
2023/09/26 11:45:05;;;;;;;6.85;3.92;;;;;;;;;;5093897;28;20023;-40
2023/09/26 11:47:30;;;;;;;6.78;3.67;;;;;;;;;;5093878;28;20063;-41
2023/09/26 11:49:55;;;;;;;7.03;3.20;;;;;;;;;;5093696;28;20027;-41
2023/09/26 11:52:21;;;;;;;6.13;3.40;;;;;;;;;;5093709;28;20076;-41
2023/09/26 11:54:46;;;;;;;6.53;3.50;;;;;;;;;;5093960;28;20416;-40
2023/09/26 11:57:14;;;;;;;6.33;3.77;;;;;;;;;;5094213;28;20320;-40
2023/09/26 11:59:40;;;;;;;7.07;3.83;;;;;;;;;;5092784;28;20258;-40
2023/09/26 12:02:07;;;;;;;8.20;4.30;;;;;;;;;;5094074;28;20022;-40
2023/09/26 12:04:32;;;;;;;6.63;3.33;;;;;;;;;;5093879;28;20095;-40
2023/09/26 12:06:58;;;;;;;9.07;3.70;;;;;;;;;;5094084;28;20055;-41
2023/09/26 12:09:23;;;;;;;6.95;3.63;;;;;;;;;;5093614;28;20246;-40
2023/09/26 12:11:55;;;;;;;9.10;3.80;;;;;;;;;;5094065;28;20024;-40
2023/09/26 12:14:20;;;;;;;10.32;3.67;;;;;;;;;;5093905;28;20269;-41
2023/09/26 12:16:50;;;;;;;8.45;3.47;;;;;;;;;;5093579;28;20402;-41
2023/09/26 12:19:15;;;;;;;7.40;3.50;;;;;;;;;;5093607;28;20125;-41
2023/09/26 12:21:41;;;;;;;6.70;3.22;;;;;;;;;;5093929;28;20560;-41
2023/09/26 12:24:06;;;;;;;7.93;3.35;;;;;;;;;;5093646;28;20428;-41
2023/09/26 12:26:31;;;;;;;7.43;3.60;;;;;;;;;;5093702;28;20382;-41
2023/09/26 12:28:57;;;;;;;8.73;3.57;;;;;;;;;;5093915;28;20032;-41
2023/09/26 12:31:22;;;;;;;8.00;3.87;;;;;;;;;;5093559;28;20335;-40
2023/09/26 12:33:47;;;;;;;9.83;3.93;;;;;;;;;;5093975;28;20020;-41
2023/09/26 12:36:12;;;;;;;7.85;3.75;;;;;;;;;;5093692;28;20098;-41
2023/09/26 12:38:37;;;;;;;8.57;3.77;;;;;;;;;;5094125;28;20016;-41
2023/09/26 12:41:03;;;;;;;7.57;3.60;;;;;;;;;;5093248;28;20265;-41
2023/09/26 12:43:28;;;;;;;7.87;4.23;;;;;;;;;;5093371;28;20031;-41
2023/09/26 12:45:53;;;;;;;6.95;3.45;;;;;;;;;;5097610;28;20261;-41
2023/09/26 12:48:19;;;;;;;9.40;4.20;;;;;;;;;;5097226;28;20378;-40
2023/09/26 12:50:44;;;;;;;8.05;4.15;;;;;;;;;;5097660;28;20754;-40
2023/09/26 12:53:09;;;;;;;10.40;4.03;;;;;;;;;;5097335;28;20023;-40
2023/09/26 12:55:35;;;;;;;7.75;4.10;;;;;;;;;;5097611;28;20442;-41
2023/09/26 12:58:00;;;;;;;8.07;4.27;;;;;;;;;;5097092;28;20378;-41
2023/09/26 13:00:25;;;;;;;9.80;3.93;;;;;;;;;;5097620;28;20035;-40
2023/09/26 13:02:50;;;;;;;7.93;4.00;;;;;;;;;;5096818;28;20461;-40
2023/09/26 13:05:16;;;;;;;8.48;3.63;;;;;;;;;;5096932;28;20028;-40
2023/09/26 13:07:41;;;;;;;7.07;3.90;;;;;;;;;;5097120;28;20019;-40
2023/09/26 13:10:06;;;;;;;8.83;4.00;;;;;;;;;;5096876;28;20381;-40
2023/09/26 13:12:32;;;;;;;7.50;4.30;;;;;;;;;;5096845;28;20012;-41
2023/09/26 13:14:57;;;;;;;9.07;4.13;;;;;;;;;;5096836;28;20028;-40
2023/09/26 13:17:23;;;;;;;10.27;3.72;;;;;;;;;;5096463;28;20046;-40
2023/09/26 13:19:48;;;;;;;8.77;3.88;;;;;;;;;;5097066;28;20477;-40
2023/09/26 13:22:14;;;;;;;8.10;3.90;;;;;;;;;;5096545;28;20017;-40
2023/09/26 13:24:40;;;;;;;8.18;3.90;;;;;;;;;;5096672;28;20099;-40
2023/09/26 13:27:05;;;;;;;12.02;4.20;;;;;;;;;;5097053;28;20016;-41
2023/09/26 13:29:30;;;;;;;9.60;4.05;;;;;;;;;;5097061;28;20020;-40
2023/09/26 13:31:56;;;;;;;8.57;4.00;;;;;;;;;;5096149;28;20137;-41
2023/09/26 13:34:21;;;;;;;7.33;3.93;;;;;;;;;;5096447;28;20059;-40
2023/09/26 13:36:46;;;;;;;7.43;4.40;;;;;;;;;;5096994;28;20277;-40
2023/09/26 13:39:11;;;;;;;6.73;3.83;;;;;;;;;;5096345;28;20375;-40
2023/09/26 13:41:36;;;;;;;13.30;3.93;;;;;;;;;;5096787;28;20024;-41
2023/09/26 13:44:02;;;;;;;10.07;4.15;;;;;;;;;;5096079;28;20388;-41
2023/09/26 13:46:27;;;;;;;10.67;4.30;;;;;;;;;;5095422;28;20020;-40
2023/09/26 13:48:52;;;;;;;11.32;4.50;;;;;;;;;;5095375;28;20316;-41
2023/09/26 13:51:17;;;;;;;7.03;3.88;;;;;;;;;;5095469;28;20036;-40
2023/09/26 13:53:42;;;;;;;7.53;3.70;;;;;;;;;;5095310;28;20024;-40
2023/09/26 13:56:08;;;;;;;6.63;3.23;;;;;;;;;;5094246;28;20020;-40
2023/09/26 13:58:33;;;;;;;7.10;3.15;;;;;;;;;;5095512;28;20262;-40
2023/09/26 14:00:59;;;;;;;11.30;3.78;;;;;;;;;;5096107;28;20025;-40
2023/09/26 14:03:25;;;;;;;13.20;3.40;;;;;;;;;;5096003;28;20370;-40
2023/09/26 14:05:50;;;;;;;8.43;3.50;;;;;;;;;;5095991;28;20020;-40
2023/09/26 14:08:15;;;;;;;13.63;3.60;;;;;;;;;;5096401;28;20174;-40
2023/09/26 14:10:41;;;;;;;7.37;3.37;;;;;;;;;;5095564;28;20365;-40
2023/09/26 14:13:06;;;;;;;7.63;3.33;;;;;;;;;;5095644;28;20289;-40
2023/09/26 14:15:31;;;;;;;8.30;3.30;;;;;;;;;;5095667;28;20044;-39
2023/09/26 14:17:57;;;;;;;7.45;3.10;;;;;;;;;;5095866;28;20258;-41
2023/09/26 14:20:22;;;;;;;5.53;3.10;;;;;;;;;;5095578;28;20047;-40
2023/09/26 14:22:47;;;;;;;5.43;3.10;;;;;;;;;;5095718;28;20042;-41
2023/09/26 14:25:13;;;;;;;8.75;3.20;;;;;;;;;;5095666;28;20512;-44